Big Torch Key, Florida
Current Conditions -  °F | °C
As of 9:53 AM on Saturday 25 Oct 2014 (Local Time) from KNQX Reporting Station
Scattered Clouds Scattered Clouds  
Wind Chill: 26°   Ceiling: Unl
Heat Index: 27°   Visibility: 10mi
Dew Point: 18°   Wind: 14mph
Humidity: 64%   Direction: 10°N
Pressure: 29.94"   Gusts: NA
Location:  24.6465°N, 81.5399°W
Report Text: KNQX 251353Z 01012KT 10SM FEW030 SCT040 26/18 A2994 RMK AO2 SLP137 T02560183 $
Loading
Personal Weather Stations






























Interactive Weather Map
Tropical Storm Tracking
New forecast layout! Learn more

10-Day Weather Forecast

Advertisements
Track Severe Weather on mobile